GIA67 WIII-WIEE
Flight info
| Callsign | GIA67 |
|---|---|
| Flight time | 0h 57m |
| Altitude | 36000 |
| Route | RIMTI W11 TKG W19 LEBEG |
| Aircraft | B738/M-SDE2E3FGHIRWXY/LB1 |
Departure
| Time | 2026-05-04 12:04 |
|---|---|
| Airport | Soekarno-Hatta International Airport (WIII) |
Arrival
| Time | 2026-05-04 13:02 |
|---|---|
| Airport | Minangkabau International Airport (WIEE) |
| Time | Latitude | Longitude | Altitude | Speed | Heading |
|---|---|---|---|---|---|
| 2026-05-04 11:47 | -6.11828 | 106.66302 | 37 ft | 0 kts | 133° |
| 2026-05-04 11:55 | -6.11810 | 106.66283 | 34 ft | 2 kts | 133° |
| 2026-05-04 11:55 | -6.11798 | 106.66271 | 37 ft | 2 kts | 133° |
| 2026-05-04 11:56 | -6.11787 | 106.66258 | 37 ft | 2 kts | 133° |
| 2026-05-04 11:56 | -6.11775 | 106.66246 | 34 ft | 2 kts | 133° |
| 2026-05-04 11:56 | -6.11763 | 106.66233 | 37 ft | 3 kts | 115° |
| 2026-05-04 11:56 | -6.11760 | 106.66218 | 35 ft | 0 kts | 60° |
| 2026-05-04 11:57 | -6.11760 | 106.66219 | 35 ft | 1 kts | 59° |
| 2026-05-04 11:57 | -6.11726 | 106.66263 | 37 ft | 13 kts | 60° |
| 2026-05-04 11:58 | -6.11683 | 106.66361 | 36 ft | 16 kts | 70° |
| 2026-05-04 11:58 | -6.11610 | 106.66396 | 37 ft | 11 kts | 340° |
| 2026-05-04 11:58 | -6.11538 | 106.66368 | 37 ft | 12 kts | 338° |
| 2026-05-04 11:58 | -6.11459 | 106.66340 | 37 ft | 12 kts | 350° |
| 2026-05-04 11:59 | -6.11395 | 106.66384 | 37 ft | 13 kts | 63° |
| 2026-05-04 11:59 | -6.11338 | 106.66526 | 37 ft | 30 kts | 68° |
| 2026-05-04 11:59 | -6.11256 | 106.66734 | 37 ft | 26 kts | 68° |
| 2026-05-04 11:59 | -6.11195 | 106.66887 | 37 ft | 23 kts | 68° |
| 2026-05-04 12:00 | -6.11127 | 106.66998 | 36 ft | 14 kts | 19° |
| 2026-05-04 12:00 | -6.11034 | 106.66987 | 37 ft | 3 kts | 336° |
| 2026-05-04 12:00 | -6.11026 | 106.66984 | 36 ft | 2 kts | 336° |
| 2026-05-04 12:01 | -6.11019 | 106.66981 | 35 ft | 0 kts | 337° |
| 2026-05-04 12:02 | -6.10941 | 106.66795 | 36 ft | 0 kts | 250° |
| 2026-05-04 12:03 | -6.10941 | 106.66794 | 36 ft | 0 kts | 250° |
| 2026-05-04 12:04 | -6.11041 | 106.66540 | 38 ft | 85 kts | 248° |
| 2026-05-04 12:04 | -6.11366 | 106.65723 | 41 ft | 164 kts | 248° |
| 2026-05-04 12:04 | -6.11788 | 106.64502 | 636 ft | 193 kts | 255° |
| 2026-05-04 12:05 | -6.12153 | 106.63114 | 1318 ft | 222 kts | 257° |
| 2026-05-04 12:05 | -6.12296 | 106.61476 | 1535 ft | 250 kts | 274° |
| 2026-05-04 12:05 | -6.11867 | 106.59710 | 1876 ft | 268 kts | 289° |
| 2026-05-04 12:05 | -6.11258 | 106.57949 | 2606 ft | 273 kts | 290° |
| 2026-05-04 12:06 | -6.10637 | 106.56154 | 3544 ft | 273 kts | 289° |
| 2026-05-04 12:06 | -6.10011 | 106.54344 | 4426 ft | 275 kts | 289° |
| 2026-05-04 12:06 | -6.09162 | 106.52615 | 5219 ft | 280 kts | 305° |
| 2026-05-04 12:06 | -6.07984 | 106.51043 | 6051 ft | 283 kts | 308° |
| 2026-05-04 12:07 | -6.06762 | 106.49470 | 6794 ft | 287 kts | 308° |
| 2026-05-04 12:07 | -6.05529 | 106.47878 | 7577 ft | 290 kts | 308° |
| 2026-05-04 12:07 | -6.04294 | 106.46268 | 8358 ft | 292 kts | 308° |
| 2026-05-04 12:07 | -6.03052 | 106.44632 | 9105 ft | 296 kts | 308° |
| 2026-05-04 12:08 | -6.01801 | 106.42973 | 9870 ft | 299 kts | 307° |
| 2026-05-04 12:08 | -6.00535 | 106.41283 | 10441 ft | 309 kts | 307° |
| 2026-05-04 12:08 | -5.99199 | 106.39495 | 10574 ft | 334 kts | 307° |
| 2026-05-04 12:08 | -5.97771 | 106.37579 | 10873 ft | 349 kts | 307° |
| 2026-05-04 12:09 | -5.96305 | 106.35606 | 11455 ft | 354 kts | 307° |
| 2026-05-04 12:09 | -5.94826 | 106.33613 | 12105 ft | 358 kts | 307° |
| 2026-05-04 12:09 | -5.93333 | 106.31601 | 12719 ft | 362 kts | 307° |
| 2026-05-04 12:09 | -5.91821 | 106.29562 | 13331 ft | 366 kts | 307° |
| 2026-05-04 12:10 | -5.90292 | 106.27498 | 13914 ft | 370 kts | 307° |
| 2026-05-04 12:10 | -5.88749 | 106.25418 | 14461 ft | 373 kts | 307° |
| 2026-05-04 12:10 | -5.87216 | 106.23350 | 15025 ft | 375 kts | 307° |
| 2026-05-04 12:10 | -5.85652 | 106.21241 | 15579 ft | 378 kts | 307° |
| 2026-05-04 12:11 | -5.84072 | 106.19112 | 16108 ft | 382 kts | 307° |
| 2026-05-04 12:11 | -5.82479 | 106.16963 | 16623 ft | 386 kts | 307° |
| 2026-05-04 12:11 | -5.80870 | 106.14794 | 17155 ft | 389 kts | 307° |
| 2026-05-04 12:11 | -5.79248 | 106.12609 | 17700 ft | 392 kts | 307° |
| 2026-05-04 12:12 | -5.77614 | 106.10406 | 18210 ft | 395 kts | 308° |
| 2026-05-04 12:12 | -5.75965 | 106.08185 | 18641 ft | 398 kts | 308° |
| 2026-05-04 12:12 | -5.74305 | 106.05948 | 19081 ft | 401 kts | 308° |
| 2026-05-04 12:12 | -5.72632 | 106.03695 | 19530 ft | 404 kts | 308° |
| 2026-05-04 12:13 | -5.70947 | 106.01424 | 19975 ft | 407 kts | 308° |
| 2026-05-04 12:14 | -5.58976 | 105.85304 | 20885 ft | 413 kts | 308° |
| 2026-05-04 12:15 | -5.57256 | 105.82989 | 20886 ft | 414 kts | 308° |
| 2026-05-04 12:15 | -5.55536 | 105.80675 | 20896 ft | 413 kts | 308° |
| 2026-05-04 12:15 | -5.53818 | 105.78363 | 20900 ft | 414 kts | 308° |
| 2026-05-04 12:15 | -5.52096 | 105.76045 | 20895 ft | 414 kts | 308° |
| 2026-05-04 12:16 | -5.50375 | 105.73729 | 20890 ft | 414 kts | 308° |
| 2026-05-04 12:16 | -5.48654 | 105.71414 | 20894 ft | 414 kts | 308° |
| 2026-05-04 12:16 | -5.46933 | 105.69098 | 20893 ft | 414 kts | 308° |
| 2026-05-04 12:16 | -5.45212 | 105.66784 | 20890 ft | 414 kts | 308° |
| 2026-05-04 12:17 | -5.43494 | 105.64468 | 20890 ft | 414 kts | 307° |
| 2026-05-04 12:17 | -5.41988 | 105.61998 | 20856 ft | 418 kts | 296° |
| 2026-05-04 12:17 | -5.40897 | 105.59277 | 21193 ft | 420 kts | 291° |
| 2026-05-04 12:17 | -5.39898 | 105.56538 | 21874 ft | 416 kts | 290° |
| 2026-05-04 12:18 | -5.38899 | 105.53799 | 22278 ft | 420 kts | 291° |
| 2026-05-04 12:18 | -5.37882 | 105.51033 | 22588 ft | 425 kts | 291° |
| 2026-05-04 12:18 | -5.36845 | 105.48240 | 22982 ft | 428 kts | 291° |
| 2026-05-04 12:18 | -5.35798 | 105.45443 | 23420 ft | 429 kts | 291° |
| 2026-05-04 12:19 | -5.34743 | 105.42633 | 23769 ft | 431 kts | 291° |
| 2026-05-04 12:19 | -5.33696 | 105.39850 | 24081 ft | 433 kts | 291° |
| 2026-05-04 12:19 | -5.32629 | 105.37015 | 24400 ft | 436 kts | 291° |
| 2026-05-04 12:19 | -5.31555 | 105.34163 | 24723 ft | 438 kts | 291° |
| 2026-05-04 12:20 | -5.30478 | 105.31300 | 25035 ft | 439 kts | 291° |
| 2026-05-04 12:20 | -5.29396 | 105.28426 | 25350 ft | 441 kts | 291° |
| 2026-05-04 12:20 | -5.28310 | 105.25540 | 25687 ft | 443 kts | 291° |
| 2026-05-04 12:20 | -5.27222 | 105.22647 | 26017 ft | 444 kts | 291° |
| 2026-05-04 12:21 | -5.26126 | 105.19742 | 26304 ft | 446 kts | 292° |
| 2026-05-04 12:21 | -5.24895 | 105.16881 | 26559 ft | 448 kts | 296° |
| 2026-05-04 12:21 | -5.23551 | 105.14051 | 26860 ft | 450 kts | 297° |
| 2026-05-04 12:21 | -5.22166 | 105.11232 | 27165 ft | 451 kts | 297° |
| 2026-05-04 12:22 | -5.20769 | 105.08404 | 27446 ft | 453 kts | 297° |
| 2026-05-04 12:22 | -5.19373 | 105.05563 | 27708 ft | 455 kts | 297° |
| 2026-05-04 12:22 | -5.17979 | 105.02703 | 27977 ft | 458 kts | 297° |
| 2026-05-04 12:22 | -5.16586 | 104.99827 | 28269 ft | 459 kts | 297° |
| 2026-05-04 12:23 | -5.15193 | 104.96937 | 28533 ft | 461 kts | 297° |
| 2026-05-04 12:23 | -5.13797 | 104.94033 | 28741 ft | 464 kts | 296° |
| 2026-05-04 12:23 | -5.12392 | 104.91110 | 28974 ft | 466 kts | 296° |
| 2026-05-04 12:23 | -5.11006 | 104.88224 | 29353 ft | 464 kts | 296° |
| 2026-05-04 12:24 | -5.09603 | 104.85307 | 29668 ft | 465 kts | 296° |
| 2026-05-04 12:24 | -5.08195 | 104.82379 | 29831 ft | 468 kts | 296° |
| 2026-05-04 12:24 | -5.06773 | 104.79424 | 29985 ft | 472 kts | 296° |
| 2026-05-04 12:24 | -5.05345 | 104.76457 | 30182 ft | 473 kts | 296° |
| 2026-05-04 12:25 | -5.03914 | 104.73486 | 30417 ft | 473 kts | 296° |
| 2026-05-04 12:25 | -5.02486 | 104.70519 | 30637 ft | 474 kts | 296° |
| 2026-05-04 12:25 | -5.01051 | 104.67538 | 30812 ft | 475 kts | 296° |
| 2026-05-04 12:25 | -4.99611 | 104.64549 | 30990 ft | 477 kts | 296° |
| 2026-05-04 12:26 | -4.98164 | 104.61544 | 31171 ft | 479 kts | 296° |
| 2026-05-04 12:26 | -4.96715 | 104.58535 | 31366 ft | 480 kts | 296° |
| 2026-05-04 12:26 | -4.95264 | 104.55523 | 31557 ft | 480 kts | 296° |
| 2026-05-04 12:26 | -4.93810 | 104.52503 | 31780 ft | 480 kts | 296° |
| 2026-05-04 12:27 | -4.92358 | 104.49492 | 32067 ft | 479 kts | 297° |
| 2026-05-04 12:27 | -4.90911 | 104.46491 | 32370 ft | 477 kts | 297° |
| 2026-05-04 12:27 | -4.89456 | 104.43505 | 32637 ft | 477 kts | 297° |
| 2026-05-04 12:27 | -4.87993 | 104.40522 | 32869 ft | 477 kts | 297° |
| 2026-05-04 12:28 | -4.86526 | 104.37538 | 33084 ft | 477 kts | 297° |
| 2026-05-04 12:28 | -4.85061 | 104.34559 | 33360 ft | 476 kts | 297° |
| 2026-05-04 12:28 | -4.83599 | 104.31583 | 33661 ft | 475 kts | 297° |
| 2026-05-04 12:28 | -4.82143 | 104.28620 | 33937 ft | 474 kts | 297° |
| 2026-05-04 12:29 | -4.80693 | 104.25663 | 34155 ft | 473 kts | 297° |
| 2026-05-04 12:29 | -4.79256 | 104.22734 | 34344 ft | 474 kts | 297° |
| 2026-05-04 12:29 | -4.77800 | 104.19764 | 34506 ft | 475 kts | 297° |
| 2026-05-04 12:29 | -4.76343 | 104.16795 | 34753 ft | 474 kts | 297° |
| 2026-05-04 12:30 | -4.74893 | 104.13838 | 35068 ft | 471 kts | 297° |
| 2026-05-04 12:30 | -4.73452 | 104.10900 | 35349 ft | 469 kts | 297° |
| 2026-05-04 12:30 | -4.72012 | 104.07963 | 35522 ft | 470 kts | 297° |
| 2026-05-04 12:30 | -4.70567 | 104.05020 | 35685 ft | 471 kts | 297° |
| 2026-05-04 12:31 | -4.69122 | 104.02076 | 35878 ft | 471 kts | 297° |
| 2026-05-04 12:31 | -4.67518 | 103.98808 | 35943 ft | 474 kts | 297° |
| 2026-05-04 12:31 | -4.55702 | 103.74748 | 35956 ft | 481 kts | 297° |
| 2026-05-04 12:32 | -4.38255 | 103.39265 | 35957 ft | 461 kts | 297° |
| 2026-05-04 12:33 | -4.26989 | 103.16383 | 35972 ft | 458 kts | 297° |
| 2026-05-04 12:33 | -4.15525 | 102.93123 | 36003 ft | 474 kts | 297° |
| 2026-05-04 12:34 | -4.03859 | 102.69465 | 35910 ft | 476 kts | 297° |
| 2026-05-04 12:34 | -3.92270 | 102.45985 | 35872 ft | 463 kts | 297° |
| 2026-05-04 12:35 | -3.77194 | 102.25901 | 36078 ft | 451 kts | 320° |
| 2026-05-04 12:35 | -3.67684 | 102.17467 | 35942 ft | 463 kts | 319° |
| 2026-05-04 12:35 | -3.58036 | 102.08712 | 35964 ft | 473 kts | 319° |
| 2026-05-04 12:36 | -3.38283 | 101.90956 | 35907 ft | 476 kts | 319° |
| 2026-05-04 12:36 | -3.18857 | 101.73505 | 35867 ft | 462 kts | 319° |
| 2026-05-04 12:37 | -3.05914 | 101.61885 | 35908 ft | 458 kts | 319° |
| 2026-05-04 12:37 | -3.01113 | 101.57578 | 35901 ft | 469 kts | 319° |
| 2026-05-04 12:38 | -2.96230 | 101.53196 | 35926 ft | 473 kts | 319° |
| 2026-05-04 12:38 | -2.91353 | 101.48818 | 35914 ft | 468 kts | 319° |
| 2026-05-04 12:39 | -2.86566 | 101.44522 | 35898 ft | 463 kts | 319° |
| 2026-05-04 12:39 | -2.81452 | 101.40654 | 35903 ft | 460 kts | 328° |
| 2026-05-04 12:40 | -2.75972 | 101.37283 | 35885 ft | 468 kts | 329° |
| 2026-05-04 12:40 | -2.70473 | 101.33910 | 35880 ft | 452 kts | 329° |
| 2026-05-04 12:40 | -2.67842 | 101.32270 | 35727 ft | 441 kts | 329° |
| 2026-05-04 12:41 | -2.65232 | 101.30632 | 34997 ft | 447 kts | 328° |
| 2026-05-04 12:41 | -2.62569 | 101.28954 | 34146 ft | 456 kts | 329° |
| 2026-05-04 12:41 | -2.59876 | 101.27254 | 33520 ft | 458 kts | 328° |
| 2026-05-04 12:41 | -2.57192 | 101.25558 | 33133 ft | 453 kts | 329° |
| 2026-05-04 12:42 | -2.54547 | 101.23886 | 32812 ft | 447 kts | 328° |
| 2026-05-04 12:42 | -2.51933 | 101.22233 | 32467 ft | 442 kts | 328° |
| 2026-05-04 12:42 | -2.49342 | 101.20596 | 32025 ft | 440 kts | 328° |
| 2026-05-04 12:42 | -2.46751 | 101.18960 | 31320 ft | 443 kts | 329° |
| 2026-05-04 12:43 | -2.44097 | 101.17285 | 30272 ft | 458 kts | 329° |
| 2026-05-04 12:43 | -2.41442 | 101.15609 | 30211 ft | 443 kts | 329° |
| 2026-05-04 12:43 | -2.38875 | 101.13987 | 29569 ft | 441 kts | 329° |
| 2026-05-04 12:43 | -2.36321 | 101.12374 | 29233 ft | 433 kts | 329° |
| 2026-05-04 12:44 | -2.33771 | 101.10764 | 28814 ft | 429 kts | 329° |
| 2026-05-04 12:44 | -2.31274 | 101.09187 | 28291 ft | 427 kts | 329° |
| 2026-05-04 12:44 | -2.28776 | 101.07610 | 27966 ft | 421 kts | 329° |
| 2026-05-04 12:44 | -2.27107 | 101.06557 | 27623 ft | 420 kts | 329° |
| 2026-05-04 12:45 | -2.23850 | 101.04501 | 27096 ft | 415 kts | 329° |
| 2026-05-04 12:45 | -2.22202 | 101.03461 | 26809 ft | 414 kts | 329° |
| 2026-05-04 12:45 | -2.19810 | 101.01951 | 26389 ft | 411 kts | 329° |
| 2026-05-04 12:45 | -2.17412 | 101.00438 | 25977 ft | 408 kts | 329° |
| 2026-05-04 12:46 | -2.15014 | 100.98924 | 25550 ft | 407 kts | 329° |
| 2026-05-04 12:46 | -2.12629 | 100.97419 | 25140 ft | 405 kts | 329° |
| 2026-05-04 12:46 | -2.10257 | 100.95922 | 24729 ft | 403 kts | 329° |
| 2026-05-04 12:46 | -2.07900 | 100.94435 | 24324 ft | 399 kts | 329° |
| 2026-05-04 12:47 | -2.05559 | 100.92957 | 23933 ft | 397 kts | 329° |
| 2026-05-04 12:47 | -2.03224 | 100.91485 | 23508 ft | 397 kts | 329° |
| 2026-05-04 12:47 | -2.00896 | 100.90016 | 23058 ft | 394 kts | 329° |
| 2026-05-04 12:47 | -1.98571 | 100.88576 | 22652 ft | 391 kts | 332° |
| 2026-05-04 12:48 | -1.96210 | 100.87289 | 22216 ft | 387 kts | 334° |
| 2026-05-04 12:48 | -1.93785 | 100.86056 | 21535 ft | 392 kts | 335° |
| 2026-05-04 12:48 | -1.91339 | 100.84838 | 20948 ft | 394 kts | 335° |
| 2026-05-04 12:48 | -1.88878 | 100.83612 | 20353 ft | 396 kts | 334° |
| 2026-05-04 12:49 | -1.86415 | 100.82374 | 19783 ft | 397 kts | 334° |
| 2026-05-04 12:49 | -1.83957 | 100.81128 | 19199 ft | 393 kts | 334° |
| 2026-05-04 12:49 | -1.81545 | 100.79898 | 18647 ft | 385 kts | 334° |
| 2026-05-04 12:49 | -1.79179 | 100.78685 | 18097 ft | 379 kts | 334° |
| 2026-05-04 12:50 | -1.76853 | 100.77492 | 17456 ft | 373 kts | 334° |
| 2026-05-04 12:50 | -1.74561 | 100.76314 | 16833 ft | 367 kts | 334° |
| 2026-05-04 12:50 | -1.72306 | 100.75156 | 16226 ft | 362 kts | 334° |
| 2026-05-04 12:50 | -1.70106 | 100.74025 | 15637 ft | 358 kts | 333° |
| 2026-05-04 12:51 | -1.67877 | 100.72880 | 15049 ft | 353 kts | 333° |
| 2026-05-04 12:51 | -1.65733 | 100.71779 | 14462 ft | 349 kts | 333° |
| 2026-05-04 12:51 | -1.63583 | 100.70674 | 13905 ft | 345 kts | 333° |
| 2026-05-04 12:51 | -1.61457 | 100.69582 | 13295 ft | 342 kts | 333° |
| 2026-05-04 12:52 | -1.59353 | 100.68501 | 12680 ft | 338 kts | 333° |
| 2026-05-04 12:52 | -1.57269 | 100.67431 | 12161 ft | 333 kts | 333° |
| 2026-05-04 12:52 | -1.55280 | 100.66409 | 12239 ft | 304 kts | 333° |
| 2026-05-04 12:52 | -1.53488 | 100.65488 | 12188 ft | 280 kts | 333° |
| 2026-05-04 12:53 | -1.51814 | 100.64628 | 12045 ft | 262 kts | 333° |
| 2026-05-04 12:53 | -1.50217 | 100.63808 | 11681 ft | 255 kts | 333° |
| 2026-05-04 12:53 | -1.48650 | 100.63003 | 11240 ft | 252 kts | 333° |
| 2026-05-04 12:53 | -1.47087 | 100.62200 | 10722 ft | 253 kts | 333° |
| 2026-05-04 12:54 | -1.45539 | 100.61405 | 10449 ft | 243 kts | 333° |
| 2026-05-04 12:54 | -1.44066 | 100.60649 | 10234 ft | 232 kts | 333° |
| 2026-05-04 12:54 | -1.42647 | 100.59920 | 10165 ft | 229 kts | 333° |
| 2026-05-04 12:54 | -1.41218 | 100.59186 | 10059 ft | 232 kts | 333° |
| 2026-05-04 12:55 | -1.39768 | 100.58441 | 9803 ft | 236 kts | 333° |
| 2026-05-04 12:55 | -1.38319 | 100.57697 | 9550 ft | 231 kts | 333° |
| 2026-05-04 12:55 | -1.36639 | 100.56836 | 9252 ft | 227 kts | 332° |
| 2026-05-04 12:55 | -1.33888 | 100.55347 | 8664 ft | 229 kts | 335° |
| 2026-05-04 12:56 | -1.30775 | 100.53949 | 7260 ft | 265 kts | 334° |
| 2026-05-04 12:56 | -1.27286 | 100.52215 | 5836 ft | 280 kts | 333° |
| 2026-05-04 12:56 | -1.23946 | 100.50506 | 5186 ft | 254 kts | 330° |
| 2026-05-04 12:56 | -1.21071 | 100.48936 | 5342 ft | 227 kts | 330° |
| 2026-05-04 12:57 | -1.18470 | 100.47568 | 5885 ft | 203 kts | 332° |
| 2026-05-04 12:57 | -1.15879 | 100.46172 | 5613 ft | 226 kts | 329° |
| 2026-05-04 12:57 | -1.13185 | 100.44572 | 5263 ft | 227 kts | 327° |
| 2026-05-04 12:57 | -1.10458 | 100.43126 | 4613 ft | 224 kts | 335° |
| 2026-05-04 12:58 | -1.07479 | 100.41669 | 3627 ft | 225 kts | 339° |
| 2026-05-04 12:58 | -1.04676 | 100.40928 | 3651 ft | 178 kts | 348° |
| 2026-05-04 12:58 | -1.02940 | 100.40719 | 3689 ft | 131 kts | 339° |
| 2026-05-04 12:58 | -1.01071 | 100.40043 | 3305 ft | 160 kts | 340° |
| 2026-05-04 12:59 | -0.99032 | 100.39316 | 3230 ft | 146 kts | 338° |
| 2026-05-04 12:59 | -0.97374 | 100.38292 | 2982 ft | 137 kts | 321° |
| 2026-05-04 12:59 | -0.96038 | 100.36959 | 2657 ft | 136 kts | 313° |
| 2026-05-04 12:59 | -0.94780 | 100.35528 | 2129 ft | 136 kts | 318° |
| 2026-05-04 13:00 | -0.93210 | 100.34574 | 1635 ft | 130 kts | 335° |
| 2026-05-04 13:00 | -0.91604 | 100.33902 | 1281 ft | 123 kts | 337° |
| 2026-05-04 13:00 | -0.90024 | 100.33291 | 976 ft | 123 kts | 337° |
| 2026-05-04 13:00 | -0.88427 | 100.32561 | 709 ft | 126 kts | 335° |
| 2026-05-04 13:01 | -0.86787 | 100.31860 | 551 ft | 130 kts | 334° |
| 2026-05-04 13:01 | -0.85170 | 100.31071 | 542 ft | 129 kts | 335° |
| 2026-05-04 13:01 | -0.83613 | 100.30349 | 485 ft | 131 kts | 334° |
| 2026-05-04 13:01 | -0.82011 | 100.29579 | 351 ft | 121 kts | 339° |
| 2026-05-04 13:02 | -0.80561 | 100.28935 | 134 ft | 110 kts | 329° |
| 2026-05-04 13:02 | -0.79193 | 100.28305 | 30 ft | 73 kts | 345° |
| 2026-05-04 13:02 | -0.79118 | 100.28281 | 27 ft | 0 kts | 49° |
| 2026-05-04 13:03 | -0.75504 | 100.31774 | 127 ft | 6132 kts | 330° |
| 2026-05-04 13:03 | -0.66133 | 100.38618 | 24372 ft | 10173 kts | 134° |
| 2026-05-04 13:03 | -0.60287 | 100.48909 | 48909 ft | 9797 kts | 6° |
| 2026-05-04 13:04 | -0.54799 | 100.64046 | 91197 ft | 9495 kts | 131° |